createdAt,value
2023-06-02T00:01:30.332Z,20.33
2023-06-02T00:04:01.378Z,26.00
2023-06-02T00:06:32.183Z,28.67
2023-06-02T00:09:02.096Z,32.33
2023-06-02T00:11:30.676Z,27.33
2023-06-02T00:13:58.866Z,21.67
2023-06-02T00:16:27.287Z,28.00
2023-06-02T00:18:58.242Z,25.00
2023-06-02T00:21:28.129Z,27.67
2023-06-02T00:23:56.539Z,28.00
2023-06-02T00:26:24.868Z,24.00
2023-06-02T00:28:53.116Z,24.67
2023-06-02T00:31:21.469Z,29.33
2023-06-02T00:33:50.677Z,26.67
2023-06-02T00:36:18.892Z,24.33
2023-06-02T00:38:47.073Z,28.00
2023-06-02T00:41:15.269Z,30.00
2023-06-02T00:43:43.560Z,29.00
2023-06-02T00:46:11.897Z,27.00
2023-06-02T00:48:40.401Z,29.67
2023-06-02T00:51:08.571Z,30.67
2023-06-02T00:53:38.089Z,30.33
2023-06-02T00:56:07.435Z,28.67
2023-06-02T00:58:38.903Z,24.67
2023-06-02T01:01:11.966Z,26.33
2023-06-02T01:03:44.574Z,27.00
2023-06-02T01:06:14.932Z,27.33
2023-06-02T01:08:45.941Z,32.67
2023-06-02T01:11:14.322Z,28.00
2023-06-02T01:13:42.808Z,27.00
2023-06-02T01:16:14.656Z,27.33
2023-06-02T01:18:50.523Z,25.00
2023-06-02T01:21:27.641Z,26.67
2023-06-02T01:23:58.667Z,26.00
2023-06-02T01:26:30.770Z,26.33
2023-06-02T01:28:58.958Z,26.67
2023-06-02T01:31:42.444Z,28.33
2023-06-02T01:34:21.211Z,31.67
2023-06-02T01:36:56.561Z,27.33
2023-06-02T01:39:28.514Z,28.67
2023-06-02T01:41:58.378Z,25.67
2023-06-02T01:44:27.844Z,25.67
2023-06-02T01:46:56.202Z,26.00
2023-06-02T01:49:24.431Z,32.00
2023-06-02T01:51:53.338Z,29.33
2023-06-02T01:54:24.185Z,28.13
2023-06-02T01:56:53.209Z,27.67
2023-06-02T01:59:21.831Z,27.67
2023-06-02T02:01:50.087Z,30.00
2023-06-02T02:04:18.413Z,26.00
2023-06-02T02:06:47.279Z,5.50
2023-06-02T02:09:15.578Z,34.33
2023-06-02T02:11:43.790Z,29.00
2023-06-02T02:14:14.728Z,31.33
2023-06-02T02:16:46.797Z,31.33
2023-06-02T02:19:15.413Z,24.00
2023-06-02T02:21:44.363Z,35.00
2023-06-02T02:24:13.353Z,26.00
2023-06-02T02:26:41.651Z,26.67
2023-06-02T02:29:09.903Z,25.67
2023-06-02T02:31:38.166Z,29.00
2023-06-02T02:34:06.464Z,28.67
2023-06-02T02:36:34.824Z,28.00
2023-06-02T02:39:02.278Z,28.00
2023-06-02T02:41:30.612Z,29.67
2023-06-02T02:43:59.616Z,35.00
2023-06-02T02:46:27.867Z,55.67
2023-06-02T02:48:56.121Z,31.33
2023-06-02T02:51:24.277Z,34.00
2023-06-02T02:53:52.475Z,30.00
2023-06-02T02:56:23.632Z,28.67
2023-06-02T02:58:51.980Z,31.33
2023-06-02T03:01:20.266Z,31.33
2023-06-02T03:03:49.419Z,35.00
2023-06-02T03:06:19.599Z,30.33
2023-06-02T03:08:48.966Z,28.00
2023-06-02T03:11:17.209Z,28.67
2023-06-02T03:13:45.435Z,30.00
2023-06-02T03:16:13.668Z,34.33
2023-06-02T03:18:42.695Z,27.67
2023-06-02T03:21:10.902Z,31.00
2023-06-02T03:23:41.689Z,31.33
2023-06-02T03:26:13.061Z,25.00
2023-06-02T03:28:43.136Z,35.33
2023-06-02T03:31:11.349Z,34.33
2023-06-02T03:33:39.567Z,32.00
2023-06-02T03:36:09.294Z,28.67
2023-06-02T03:38:37.445Z,32.67
2023-06-02T03:41:06.118Z,28.67
2023-06-02T03:43:34.317Z,30.67
2023-06-02T03:46:02.705Z,31.00
2023-06-02T03:48:31.076Z,28.33
2023-06-02T03:50:59.423Z,24.67
2023-06-02T03:53:27.644Z,29.33
2023-06-02T03:55:56.706Z,28.00
2023-06-02T03:58:25.023Z,24.33
2023-06-02T04:00:53.181Z,30.67
2023-06-02T04:03:23.165Z,28.00
2023-06-02T04:05:51.651Z,33.67
2023-06-02T04:08:19.880Z,29.33
2023-06-02T04:10:48.100Z,30.67
2023-06-02T04:13:16.202Z,31.00
2023-06-02T04:15:44.418Z,28.00
2023-06-02T04:18:13.718Z,26.67
2023-06-02T04:20:42.050Z,25.67
2023-06-02T04:23:11.131Z,20.67
2023-06-02T04:25:39.342Z,28.33
2023-06-02T04:28:09.029Z,24.33
2023-06-02T04:30:38.992Z,27.67
2023-06-02T04:33:08.142Z,26.33
2023-06-02T04:35:36.946Z,28.00
2023-06-02T04:38:05.283Z,28.67
2023-06-02T04:40:33.579Z,32.67
2023-06-02T04:43:01.633Z,31.00
2023-06-02T04:45:29.785Z,33.67
2023-06-02T04:47:58.116Z,31.67
2023-06-02T04:50:26.664Z,26.67
2023-06-02T04:52:55.529Z,28.67
2023-06-02T04:55:24.134Z,23.00
2023-06-02T04:57:53.054Z,26.33
2023-06-02T05:00:21.375Z,25.67
2023-06-02T05:02:49.727Z,26.67
2023-06-02T05:05:18.130Z,23.00
2023-06-02T05:07:46.290Z,25.00
2023-06-02T05:10:15.337Z,20.67
2023-06-02T05:12:43.804Z,27.00
2023-06-02T05:15:12.052Z,24.67
2023-06-02T05:17:40.366Z,26.00
2023-06-02T05:20:09.055Z,25.67
2023-06-02T05:22:37.283Z,26.00
2023-06-02T05:25:07.044Z,25.00
2023-06-02T05:27:36.798Z,24.33
2023-06-02T05:30:05.886Z,26.00
2023-06-02T05:32:34.279Z,26.00
2023-06-02T05:35:02.690Z,24.67
2023-06-02T05:37:30.982Z,28.33
2023-06-02T05:39:59.140Z,22.00
2023-06-02T05:42:28.496Z,28.00
2023-06-02T05:44:56.719Z,22.67
2023-06-02T05:47:27.568Z,21.33
2023-06-02T05:49:55.830Z,23.00
2023-06-02T05:52:24.080Z,20.00
2023-06-02T05:54:52.354Z,21.00
2023-06-02T05:57:21.318Z,20.33
2023-06-02T05:59:49.499Z,18.00
2023-06-02T06:02:17.798Z,20.33
2023-06-02T06:04:45.958Z,18.67
2023-06-02T06:07:14.084Z,17.33
2023-06-02T06:09:42.496Z,19.67
2023-06-02T06:12:10.825Z,18.00
2023-06-02T06:14:38.995Z,21.33
2023-06-02T06:17:07.395Z,19.00
2023-06-02T06:19:35.645Z,24.67
2023-06-02T06:22:03.968Z,21.67
2023-06-02T06:24:32.135Z,20.33
2023-06-02T06:27:01.108Z,20.33
2023-06-02T06:29:29.330Z,17.67
2023-06-02T06:31:57.427Z,15.00
2023-06-02T06:34:26.367Z,19.00
2023-06-02T06:36:54.749Z,15.33
2023-06-02T06:39:22.864Z,15.33
2023-06-02T06:41:51.832Z,18.33
2023-06-02T06:44:19.935Z,16.33
2023-06-02T06:46:48.077Z,17.50
2023-06-02T06:49:16.274Z,17.00
2023-06-02T06:51:44.386Z,16.67
2023-06-02T06:54:12.549Z,13.50
2023-06-02T06:56:41.720Z,16.00
2023-06-02T06:59:11.299Z,18.67
2023-06-02T07:01:40.192Z,17.67
2023-06-02T07:04:08.750Z,14.50
2023-06-02T07:06:40.723Z,17.00
2023-06-02T07:09:10.054Z,18.00
2023-06-02T07:11:38.341Z,18.00
2023-06-02T07:14:15.406Z,18.00
2023-06-02T07:16:47.213Z,19.00
2023-06-02T07:19:16.072Z,15.50
2023-06-02T07:21:44.218Z,15.33
2023-06-02T07:24:13.255Z,18.67
2023-06-02T07:26:43.786Z,20.00
2023-06-02T07:29:13.717Z,17.00
2023-06-02T07:31:45.014Z,16.67
2023-06-02T07:34:13.336Z,18.33
2023-06-02T07:36:41.528Z,14.67
2023-06-02T07:39:09.760Z,14.00
2023-06-02T07:41:37.853Z,18.33
2023-06-02T07:44:05.975Z,16.67
2023-06-02T07:46:34.349Z,15.00
2023-06-02T07:49:02.909Z,14.00
2023-06-02T07:51:30.984Z,14.00
2023-06-02T07:53:59.121Z,23.00
2023-06-02T07:56:27.263Z,15.00
2023-06-02T07:58:55.326Z,14.33
2023-06-02T08:01:24.287Z,13.33
2023-06-02T08:03:52.602Z,15.00
2023-06-02T08:06:20.754Z,15.33
2023-06-02T08:08:48.858Z,17.00
2023-06-02T08:11:16.938Z,17.33
2023-06-02T08:13:45.625Z,15.67
2023-06-02T08:16:27.421Z,14.50
2023-06-02T08:18:57.235Z,16.33
2023-06-02T08:21:25.719Z,17.33
2023-06-02T08:23:53.826Z,15.00
2023-06-02T08:26:23.586Z,16.33
2023-06-02T08:28:52.044Z,15.00
2023-06-02T08:31:24.326Z,21.33
2023-06-02T08:33:53.851Z,20.33
2023-06-02T08:36:22.312Z,17.00
2023-06-02T08:38:53.595Z,18.00
2023-06-02T08:41:21.720Z,15.00
2023-06-02T08:43:53.325Z,17.33
2023-06-02T08:46:22.266Z,16.67
2023-06-02T08:48:57.350Z,14.50
2023-06-02T08:51:26.229Z,15.67
2023-06-02T08:53:54.478Z,20.33
2023-06-02T08:56:22.780Z,14.00
2023-06-02T08:58:50.913Z,12.00
2023-06-02T09:01:19.059Z,16.67
2023-06-02T09:03:49.248Z,13.00
2023-06-02T09:06:20.063Z,12.00
2023-06-02T09:09:01.967Z,19.00
2023-06-02T09:11:32.359Z,14.50
2023-06-02T09:14:00.743Z,13.00
2023-06-02T09:16:42.382Z,16.00
2023-06-02T09:19:10.485Z,17.33
2023-06-02T09:21:38.926Z,15.67
2023-06-02T09:26:38.410Z,19.33
2023-06-02T09:29:15.337Z,15.00
2023-06-02T09:31:45.577Z,17.67
2023-06-02T09:34:17.509Z,15.00
2023-06-02T09:36:50.041Z,16.00
2023-06-02T09:39:34.584Z,23.67
2023-06-02T09:42:03.540Z,18.50
2023-06-02T09:44:32.580Z,18.00
2023-06-02T09:47:03.563Z,15.33
2023-06-02T09:49:41.437Z,19.00
2023-06-02T09:52:17.622Z,17.00
2023-06-02T09:54:50.285Z,10.50
2023-06-02T09:57:18.602Z,15.00
2023-06-02T09:59:47.263Z,23.67
2023-06-02T10:02:15.550Z,20.33
2023-06-02T10:04:46.587Z,17.33
2023-06-02T10:07:24.864Z,19.00
2023-06-02T10:10:12.036Z,18.00
2023-06-02T10:13:24.605Z,18.33
2023-06-02T10:16:19.825Z,17.67
2023-06-02T10:18:56.639Z,19.67
2023-06-02T10:21:57.973Z,14.50
2023-06-02T10:24:44.087Z,20.00
2023-06-02T10:27:39.732Z,19.67
2023-06-02T10:30:08.696Z,15.50
2023-06-02T10:32:49.544Z,19.50
2023-06-02T10:35:19.227Z,16.00
2023-06-02T10:37:47.422Z,15.50
2023-06-02T10:40:16.838Z,16.50
2023-06-02T10:43:15.127Z,19.00
2023-06-02T10:45:44.010Z,14.00
2023-06-02T10:48:40.283Z,19.00
2023-06-02T10:51:11.156Z,21.33
2023-06-02T10:54:03.445Z,19.67
2023-06-02T10:56:37.649Z,19.67
2023-06-02T10:59:06.699Z,21.50
2023-06-02T11:02:03.338Z,9.00
2023-06-02T11:04:37.803Z,19.00
2023-06-02T11:07:27.566Z,16.00
2023-06-02T11:09:59.588Z,18.33
2023-06-02T11:12:52.270Z,18.00
2023-06-02T11:15:21.456Z,20.00
2023-06-02T11:17:50.255Z,14.33
2023-06-02T11:20:19.747Z,16.00
2023-06-02T11:22:48.203Z,15.00
2023-06-02T11:25:17.840Z,13.33
2023-06-02T11:27:48.691Z,15.00
2023-06-02T11:30:20.173Z,16.00
2023-06-02T11:32:51.195Z,20.50
2023-06-02T11:35:24.513Z,14.50
2023-06-02T11:38:09.545Z,13.67
2023-06-02T11:40:38.827Z,15.67
2023-06-02T11:43:07.089Z,18.00
2023-06-02T11:45:36.489Z,14.33
2023-06-02T11:48:10.417Z,18.00
2023-06-02T11:50:39.590Z,16.67
2023-06-02T11:53:15.458Z,14.50
2023-06-02T11:55:43.894Z,13.67
2023-06-02T11:58:22.240Z,14.67
2023-06-02T12:00:52.464Z,15.50
2023-06-02T12:03:21.070Z,17.67
2023-06-02T12:05:50.941Z,16.00
2023-06-02T12:08:24.016Z,21.00
2023-06-02T12:10:57.307Z,14.00
2023-06-02T12:13:32.446Z,11.33
2023-06-02T12:16:22.189Z,14.50
2023-06-02T12:18:56.267Z,16.50
2023-06-02T12:21:29.497Z,12.33
2023-06-02T12:23:59.890Z,13.67
2023-06-02T12:26:28.320Z,15.00
2023-06-02T12:28:57.982Z,15.00
2023-06-02T12:31:26.108Z,11.67
2023-06-02T12:33:54.296Z,17.33
2023-06-02T12:36:22.404Z,13.67
2023-06-02T12:38:50.396Z,11.00
2023-06-02T12:41:18.530Z,15.67
2023-06-02T12:43:46.680Z,13.00
2023-06-02T12:46:14.998Z,14.67
2023-06-02T12:48:44.443Z,14.00
2023-06-02T12:51:12.970Z,13.67
2023-06-02T12:53:41.440Z,17.00
2023-06-02T12:56:09.652Z,18.00
2023-06-02T12:58:37.948Z,16.50
2023-06-02T13:01:06.525Z,17.67
2023-06-02T13:03:35.365Z,17.50
2023-06-02T13:06:07.455Z,15.50
2023-06-02T13:08:40.206Z,18.00
2023-06-02T13:11:08.309Z,15.00
2023-06-02T13:13:36.974Z,15.00
2023-06-02T13:16:05.525Z,17.67
2023-06-02T13:18:34.700Z,17.00
2023-06-02T13:21:02.890Z,18.67
2023-06-02T13:23:35.865Z,16.25
2023-06-02T13:26:04.430Z,19.67
2023-06-02T13:28:34.224Z,19.00
2023-06-02T13:31:03.574Z,16.33
2023-06-02T13:33:31.901Z,18.00
2023-06-02T13:36:00.052Z,18.00
2023-06-02T13:38:28.177Z,19.67
2023-06-02T13:40:59.480Z,15.67
2023-06-02T13:43:27.837Z,20.00
2023-06-02T13:45:56.054Z,13.00
2023-06-02T13:48:24.137Z,16.67
2023-06-02T13:50:52.144Z,16.33
2023-06-02T13:53:20.261Z,16.00
2023-06-02T13:55:48.528Z,14.50
2023-06-02T13:58:16.488Z,9.00
2023-06-02T14:00:44.622Z,15.00
2023-06-02T14:03:13.042Z,18.33
2023-06-02T14:05:45.536Z,16.00
2023-06-02T14:08:15.359Z,15.00
2023-06-02T14:10:43.490Z,16.00
2023-06-02T14:13:12.185Z,18.00
2023-06-02T14:15:40.337Z,16.00
2023-06-02T14:18:08.519Z,15.00
2023-06-02T14:20:36.855Z,16.33
2023-06-02T14:23:05.186Z,16.00
2023-06-02T14:25:33.580Z,20.00
2023-06-02T14:28:01.690Z,18.33
2023-06-02T14:30:29.886Z,17.00
2023-06-02T14:32:58.020Z,20.00
2023-06-02T14:35:26.432Z,15.00
2023-06-02T14:37:54.576Z,16.50
2023-06-02T14:40:22.747Z,15.50
2023-06-02T14:42:50.932Z,14.50
2023-06-02T14:45:18.938Z,14.00
2023-06-02T14:47:48.726Z,14.67
2023-06-02T14:50:17.062Z,12.00
2023-06-02T14:52:46.811Z,11.50
2023-06-02T14:55:15.033Z,14.33
2023-06-02T14:57:43.195Z,14.00
2023-06-02T15:00:11.759Z,13.67
2023-06-02T15:02:39.844Z,12.00
2023-06-02T15:05:08.756Z,12.00
2023-06-02T15:07:37.821Z,11.00
2023-06-02T15:10:07.049Z,16.00
2023-06-02T15:12:35.012Z,12.00
2023-06-02T15:15:03.515Z,11.00
2023-06-02T15:17:31.742Z,11.67
2023-06-02T15:19:59.910Z,11.67
2023-06-02T15:22:28.795Z,12.67
2023-06-02T15:24:58.112Z,11.67
2023-06-02T15:27:26.240Z,13.00
2023-06-02T15:29:54.215Z,11.67
2023-06-02T15:32:22.307Z,12.67
2023-06-02T15:34:50.365Z,12.33
2023-06-02T15:37:18.558Z,11.33
2023-06-02T15:39:46.684Z,10.00
2023-06-02T15:42:14.664Z,11.33
2023-06-02T15:44:42.660Z,11.33
2023-06-02T15:47:10.884Z,12.33
2023-06-02T15:49:38.938Z,9.00
2023-06-02T15:52:07.235Z,7.67
2023-06-02T15:54:35.389Z,9.67
2023-06-02T15:57:04.528Z,10.33
2023-06-02T15:59:32.887Z,5.67
2023-06-02T16:02:00.906Z,7.00
2023-06-02T16:04:29.034Z,10.00
2023-06-02T16:06:57.043Z,3.33
2023-06-02T16:09:25.007Z,6.67
2023-06-02T16:11:52.952Z,5.33
2023-06-02T16:14:20.916Z,4.00
2023-06-02T16:16:48.899Z,5.33
2023-06-02T16:19:17.929Z,8.00
2023-06-02T16:21:46.096Z,6.00
2023-06-02T16:24:14.197Z,6.00
2023-06-02T16:26:42.346Z,6.33
2023-06-02T16:29:10.778Z,8.00
2023-06-02T16:31:38.864Z,7.33
2023-06-02T16:34:06.999Z,6.00
2023-06-02T16:36:34.981Z,7.67
2023-06-02T16:39:04.078Z,9.00
2023-06-02T16:41:32.133Z,6.67
2023-06-02T16:44:00.081Z,5.67
2023-06-02T16:46:28.109Z,7.67
2023-06-02T16:48:56.152Z,6.67
2023-06-02T16:51:24.211Z,3.67
2023-06-02T16:53:52.234Z,7.33
2023-06-02T16:56:20.322Z,8.00
2023-06-02T16:58:49.129Z,8.00
2023-06-02T17:01:17.254Z,9.33
2023-06-02T17:03:45.431Z,8.33
2023-06-02T17:06:13.538Z,8.00
2023-06-02T17:08:41.503Z,8.33
2023-06-02T17:11:09.482Z,9.00
2023-06-02T17:13:38.564Z,7.20
2023-06-02T17:16:06.680Z,8.00
2023-06-02T17:18:35.233Z,13.00
2023-06-02T17:21:04.717Z,8.67
2023-06-02T17:23:32.873Z,9.33
2023-06-02T17:26:00.938Z,9.00
2023-06-02T17:28:28.942Z,10.67
2023-06-02T17:30:59.105Z,12.20
2023-06-02T17:33:27.166Z,9.33
2023-06-02T17:35:55.174Z,12.67
2023-06-02T17:38:24.294Z,9.80
2023-06-02T17:40:52.549Z,10.00
2023-06-02T17:43:20.682Z,11.33
2023-06-02T17:45:48.771Z,10.00
2023-06-02T17:48:16.827Z,12.00
2023-06-02T17:50:44.909Z,10.00
2023-06-02T17:53:13.162Z,11.67
2023-06-02T17:55:44.317Z,14.00
2023-06-02T17:58:13.130Z,10.00
2023-06-02T18:00:41.670Z,11.00
2023-06-02T18:03:09.926Z,15.67
2023-06-02T18:05:38.033Z,13.00
2023-06-02T18:08:06.681Z,12.00
2023-06-02T18:10:34.670Z,12.67
2023-06-02T18:13:04.582Z,12.33
2023-06-02T18:15:32.703Z,14.33
2023-06-02T18:18:00.909Z,13.00
2023-06-02T18:20:29.230Z,13.33
2023-06-02T18:22:57.446Z,14.33
2023-06-02T18:25:25.702Z,12.67
2023-06-02T18:27:53.941Z,13.00
2023-06-02T18:30:22.626Z,12.67
2023-06-02T18:32:51.061Z,13.33
2023-06-02T18:35:19.204Z,13.00
2023-06-02T18:37:47.278Z,12.67
2023-06-02T18:40:15.323Z,17.00
2023-06-02T18:42:43.450Z,15.00
2023-06-02T18:45:11.633Z,13.00
2023-06-02T18:47:40.286Z,12.67
2023-06-02T18:50:09.083Z,14.00
2023-06-02T18:52:37.632Z,13.00
2023-06-02T18:55:06.447Z,14.33
2023-06-02T18:57:34.566Z,11.33
2023-06-02T19:00:02.808Z,11.67
2023-06-02T19:02:31.243Z,12.67
2023-06-02T19:04:59.857Z,20.33
2023-06-02T19:07:29.909Z,19.33
2023-06-02T19:09:58.633Z,12.00
2023-06-02T19:12:26.897Z,13.00
2023-06-02T19:14:55.008Z,13.00
2023-06-02T19:17:24.470Z,15.00
2023-06-02T19:19:52.823Z,14.33
2023-06-02T19:22:21.178Z,15.00
2023-06-02T19:24:49.896Z,15.00
2023-06-02T19:27:19.449Z,15.00
2023-06-02T19:29:49.016Z,12.00
2023-06-02T19:32:17.526Z,17.33
2023-06-02T19:34:45.817Z,13.00
2023-06-02T19:37:15.225Z,12.67
2023-06-02T19:39:43.591Z,12.00
2023-06-02T19:42:11.739Z,11.00
2023-06-02T19:44:43.525Z,11.00
2023-06-02T19:47:10.795Z,13.00
2023-06-02T19:49:41.951Z,15.33
2023-06-02T19:52:09.312Z,14.00
2023-06-02T19:54:36.768Z,18.50
2023-06-02T19:57:04.497Z,16.50
2023-06-02T19:59:32.631Z,11.00
2023-06-02T20:02:00.951Z,13.00
2023-06-02T20:04:29.111Z,13.33
2023-06-02T20:06:59.541Z,15.00
2023-06-02T20:09:27.383Z,15.00
2023-06-02T20:11:54.753Z,16.00
2023-06-02T20:14:22.821Z,10.00
2023-06-02T20:16:50.123Z,10.00
2023-06-02T20:19:17.638Z,13.00
2023-06-02T20:21:46.735Z,9.60
2023-06-02T20:24:13.976Z,12.50
2023-06-02T20:26:42.633Z,13.33
2023-06-02T20:29:10.937Z,11.33
2023-06-02T20:31:38.231Z,14.00
2023-06-02T20:34:05.504Z,8.00
2023-06-02T20:36:33.210Z,11.00
2023-06-02T20:39:01.295Z,11.00
2023-06-02T20:41:28.722Z,14.00
2023-06-02T20:43:57.449Z,13.33
2023-06-02T20:46:25.635Z,12.00
2023-06-02T20:48:54.403Z,15.50
2023-06-02T20:51:22.143Z,13.00
2023-06-02T20:53:50.619Z,14.00
2023-06-02T20:56:20.113Z,12.50
2023-06-02T20:58:49.084Z,14.50
2023-06-02T21:01:17.315Z,16.50
2023-06-02T21:03:45.618Z,15.50
2023-06-02T21:06:12.982Z,14.50
2023-06-02T21:08:41.134Z,14.00
2023-06-02T21:11:09.406Z,18.50
2023-06-02T21:13:38.513Z,14.33
2023-06-02T21:16:07.975Z,15.67
2023-06-02T21:18:35.283Z,18.00
2023-06-02T21:21:03.889Z,18.00
2023-06-02T21:23:31.441Z,17.50
2023-06-02T21:25:58.845Z,13.00
2023-06-02T21:28:27.018Z,18.00
2023-06-02T21:30:55.176Z,21.50
2023-06-02T21:33:23.482Z,15.67
2023-06-02T21:35:50.859Z,19.50
2023-06-02T21:38:19.080Z,16.00
2023-06-02T21:40:47.329Z,17.00
2023-06-02T21:43:14.832Z,14.50
2023-06-02T21:45:43.035Z,18.33
2023-06-02T21:48:11.195Z,15.67
2023-06-02T21:50:38.520Z,15.00
2023-06-02T21:53:06.704Z,15.67
2023-06-02T21:55:34.860Z,16.67
2023-06-02T21:58:02.992Z,14.00
2023-06-02T22:00:31.204Z,12.33
2023-06-02T22:02:59.411Z,14.33
2023-06-02T22:05:27.725Z,15.67
2023-06-02T22:07:56.214Z,12.33
2023-06-02T22:10:24.362Z,14.67
2023-06-02T22:12:53.297Z,15.50
2023-06-02T22:15:21.772Z,11.33
2023-06-02T22:17:49.993Z,15.33
2023-06-02T22:20:18.206Z,16.00
2023-06-02T22:22:46.346Z,13.33
2023-06-02T22:25:14.482Z,14.67
2023-06-02T22:27:42.658Z,16.67
2023-06-02T22:30:10.795Z,12.00
2023-06-02T22:32:38.885Z,14.00
2023-06-02T22:35:07.285Z,10.33
2023-06-02T22:37:35.432Z,14.33
2023-06-02T22:40:02.776Z,12.00
2023-06-02T22:42:30.046Z,15.00
2023-06-02T22:44:59.080Z,15.00
2023-06-02T22:47:28.945Z,15.50
2023-06-02T22:49:57.226Z,11.33
2023-06-02T22:52:24.598Z,14.00
2023-06-02T22:54:52.763Z,12.00
2023-06-02T22:57:21.292Z,13.67
2023-06-02T22:59:48.645Z,12.50
2023-06-02T23:02:15.952Z,15.00
2023-06-02T23:04:44.125Z,14.00
2023-06-02T23:07:12.350Z,14.00
2023-06-02T23:09:40.883Z,13.33
2023-06-02T23:12:08.870Z,19.50
2023-06-02T23:14:36.209Z,15.00
2023-06-02T23:17:03.984Z,12.00
2023-06-02T23:19:32.170Z,14.67
2023-06-02T23:21:59.512Z,12.50
2023-06-02T23:24:26.829Z,15.00
2023-06-02T23:26:55.000Z,19.33
2023-06-02T23:29:23.131Z,17.00
2023-06-02T23:31:51.445Z,14.33
2023-06-02T23:34:19.579Z,15.33
2023-06-02T23:36:47.699Z,12.67
2023-06-02T23:39:16.032Z,13.67
2023-06-02T23:41:43.320Z,11.50
2023-06-02T23:44:11.370Z,10.33
2023-06-02T23:46:38.700Z,17.00
2023-06-02T23:49:07.071Z,13.00
2023-06-02T23:51:35.394Z,12.00
2023-06-02T23:54:02.794Z,12.00
2023-06-02T23:56:31.503Z,12.00
2023-06-02T23:59:00.076Z,12.67
